Time;durP1;ratioP1;P1;durP2;ratioP2;P2;SDS_P1;SDS_P2;PMS_P1;PMS_P2;Temp;Humidity;BMP_temperature;BMP_pressure;BME280_temperature;BME280_humidity;BME280_pressure;Samples;Min_cycle;Max_cycle;Signal;HPM_P1;HPM_P2
2023/04/06 00:02:01;;;;;;;16.40;9.65;;;;;;;7.33;50.39;101712.72;5075491;28;20036;-83
2023/04/06 00:04:26;;;;;;;14.27;9.23;;;;;;;6.97;50.17;101652.66;5074964;28;20488;-84
2023/04/06 00:06:52;;;;;;;22.45;9.70;;;;;;;7.20;49.91;101716.63;5074683;28;20056;-83
2023/04/06 00:09:18;;;;;;;15.63;9.77;;;;;;;6.97;51.68;101682.44;5074566;28;20052;-84
2023/04/06 00:11:43;;;;;;;16.40;9.95;;;;;;;6.96;51.98;101682.41;5075006;28;20082;-84
2023/04/06 00:14:08;;;;;;;16.80;8.90;;;;;;;7.06;50.65;101705.56;5075593;28;20119;-83
2023/04/06 00:16:34;;;;;;;17.77;8.77;;;;;;;7.30;50.57;101707.34;5058132;28;20037;-84
2023/04/06 00:19:00;;;;;;;19.88;9.02;;;;;;;7.41;49.49;101709.56;5058133;28;20036;-84
2023/04/06 00:21:26;;;;;;;13.57;9.20;;;;;;;7.39;49.76;101695.44;5075002;28;20055;-84
2023/04/06 00:23:51;;;;;;;16.55;9.52;;;;;;;7.33;49.51;101668.03;5074600;28;20091;-83
2023/04/06 00:26:17;;;;;;;14.45;8.60;;;;;;;7.62;49.16;101708.53;5058102;28;20036;-84
2023/04/06 00:28:42;;;;;;;14.77;8.98;;;;;;;7.47;49.70;101662.44;5041237;28;20086;-84
2023/04/06 00:31:08;;;;;;;16.58;9.57;;;;;;;7.63;49.66;101698.09;5074394;28;20036;-83
2023/04/06 00:33:33;;;;;;;15.00;9.18;;;;;;;7.52;48.94;101671.38;5074901;28;20102;-83
2023/04/06 00:35:59;;;;;;;14.73;9.57;;;;;;;7.67;48.56;101694.72;5073965;28;20111;-83
2023/04/06 00:38:24;;;;;;;13.35;8.80;;;;;;;7.56;48.33;101688.16;5057675;28;20028;-83
2023/04/06 00:40:50;;;;;;;15.35;8.50;;;;;;;7.55;49.88;101685.50;5074299;28;20377;-84
2023/04/06 00:43:15;;;;;;;14.35;8.80;;;;;;;7.39;48.37;101652.47;5075726;28;20036;-84
2023/04/06 00:45:42;;;;;;;16.63;9.07;;;;;;;7.56;48.15;101671.50;5074377;28;20044;-84
2023/04/06 00:48:08;;;;;;;13.68;8.55;;;;;;;7.40;47.92;101644.63;5075467;28;20127;-84
2023/04/06 00:50:34;;;;;;;12.00;8.13;;;;;;;7.46;47.40;101642.25;5075043;28;20139;-83
2023/04/06 00:53:00;;;;;;;15.65;9.23;;;;;;;7.63;47.04;101673.53;5062620;28;20181;-83
2023/04/06 00:55:29;;;;;;;17.33;8.85;;;;;;;7.67;47.42;101670.16;5061603;28;20068;-83
2023/04/06 00:57:58;;;;;;;15.00;8.85;;;;;;;7.76;46.89;101667.84;5078246;28;20032;-83
2023/04/06 01:00:24;;;;;;;13.38;8.15;;;;;;;7.72;46.71;101669.47;5057982;28;20488;-84
2023/04/06 01:02:49;;;;;;;16.55;8.95;;;;;;;7.69;46.38;101653.56;5074350;28;20040;-83
2023/04/06 01:05:15;;;;;;;14.38;7.88;;;;;;;7.80;47.17;101667.13;5040705;28;20041;-84
2023/04/06 01:07:40;;;;;;;17.42;8.75;;;;;;;7.58;46.49;101639.16;5040505;28;20045;-83
2023/04/06 01:10:06;;;;;;;14.10;8.48;;;;;;;7.75;46.58;101656.44;5056861;28;20051;-84
2023/04/06 01:12:31;;;;;;;12.80;8.63;;;;;;;7.76;46.89;101654.69;5040541;28;20035;-83
2023/04/06 01:14:57;;;;;;;14.60;8.73;;;;;;;7.62;47.31;101637.50;5074588;28;20032;-84
2023/04/06 01:17:22;;;;;;;14.23;8.98;;;;;;;7.47;47.23;101628.25;5056898;28;20025;-83
2023/04/06 01:19:51;;;;;;;15.77;8.85;;;;;;;7.58;47.57;101654.94;5074245;28;20040;-83
2023/04/06 01:22:17;;;;;;;14.30;8.68;;;;;;;7.43;47.44;101630.72;5074706;28;20052;-83
2023/04/06 01:24:42;;;;;;;15.35;8.80;;;;;;;7.49;48.02;101655.50;5056864;28;20107;-84
2023/04/06 01:27:08;;;;;;;14.98;8.88;;;;;;;7.35;48.17;101648.84;5040141;28;20482;-83
2023/04/06 01:29:33;;;;;;;17.58;9.00;;;;;;;7.12;48.05;101631.34;5056561;28;20473;-83
2023/04/06 01:31:59;;;;;;;14.07;8.73;;;;;;;7.01;48.39;101647.56;5056501;28;20472;-84
2023/04/06 01:34:24;;;;;;;15.80;8.60;;;;;;;6.70;48.53;101597.34;5056163;28;20040;-84
2023/04/06 01:36:50;;;;;;;16.58;9.13;;;;;;;6.84;49.45;101646.03;5056448;28;20033;-84
2023/04/06 01:39:15;;;;;;;16.00;8.90;;;;;;;6.84;49.66;101632.91;5039874;28;20064;-83
2023/04/06 01:41:41;;;;;;;15.43;8.95;;;;;;;6.62;49.19;101589.16;5056375;28;20040;-83
2023/04/06 01:44:06;;;;;;;15.15;9.00;;;;;;;6.78;50.29;101614.28;5056283;28;20036;-83
2023/04/06 01:46:32;;;;;;;16.23;9.50;;;;;;;6.76;50.29;101632.59;5073910;28;20036;-83
2023/04/06 01:48:57;;;;;;;13.82;8.93;;;;;;;6.62;50.33;101598.78;5055359;28;20033;-83
2023/04/06 01:51:24;;;;;;;14.57;9.10;;;;;;;6.74;50.08;101623.78;5039445;28;20036;-84
2023/04/06 01:53:50;;;;;;;17.20;9.68;;;;;;;6.72;50.11;101614.03;5056498;28;20122;-84
2023/04/06 01:56:15;;;;;;;17.13;9.35;;;;;;;6.83;49.90;101625.88;5055248;28;20127;-82
2023/04/06 01:58:41;;;;;;;14.75;9.32;;;;;;;6.65;50.50;101573.53;5055869;28;20036;-83
2023/04/06 02:01:08;;;;;;;17.00;9.63;;;;;;;7.01;49.88;101618.66;5039055;28;20033;-84
2023/04/06 02:03:35;;;;;;;16.20;9.48;;;;;;;7.12;49.86;101613.81;5056220;28;20032;-83
2023/04/06 02:06:00;;;;;;;17.00;9.95;;;;;;;7.09;49.55;101607.56;5023616;28;20076;-83
2023/04/06 02:08:27;;;;;;;19.73;10.77;;;;;;;6.96;49.30;101596.59;5072571;28;20474;-83
2023/04/06 02:10:53;;;;;;;16.90;9.70;;;;;;;6.99;50.19;101593.19;5071969;28;20420;-83
2023/04/06 02:13:19;;;;;;;19.88;10.20;;;;;;;7.03;50.57;101600.34;5072359;28;20059;-83
2023/04/06 02:15:44;;;;;;;15.73;9.40;;;;;;;7.00;49.59;101577.47;5055576;28;20111;-84
2023/04/06 02:18:11;;;;;;;15.05;9.98;;;;;;;6.81;49.97;101556.63;5055825;28;20040;-83
2023/04/06 02:20:37;;;;;;;17.30;9.85;;;;;;;6.98;50.53;101594.00;5056028;28;20106;-83
2023/04/06 02:23:03;;;;;;;20.35;11.00;;;;;;;6.86;51.19;101593.56;5055504;28;20465;-83
2023/04/06 02:25:29;;;;;;;18.38;10.38;;;;;;;6.78;51.16;101586.28;5073313;28;20514;-83
2023/04/06 02:27:56;;;;;;;18.27;10.27;;;;;;;6.86;51.34;101591.84;5073312;28;20503;-83
2023/04/06 02:30:23;;;;;;;17.83;10.57;;;;;;;6.85;52.10;101576.91;5071683;28;20036;-83
2023/04/06 02:32:49;;;;;;;19.92;11.35;;;;;;;6.59;52.62;101559.25;5073126;28;20081;-83
2023/04/06 02:35:20;;;;;;;16.10;10.82;;;;;;;6.48;52.72;101558.84;5055579;28;20028;-83
2023/04/06 02:37:46;;;;;;;19.25;11.73;;;;;;;6.42;52.80;101550.72;5073181;28;20025;-84
2023/04/06 02:40:14;;;;;;;16.10;10.43;;;;;;;6.27;52.87;101501.16;5071883;28;20037;-83
2023/04/06 02:42:41;;;;;;;18.30;11.10;;;;;;;6.42;53.20;101534.97;5038610;28;20044;-83
2023/04/06 02:45:12;;;;;;;20.30;11.27;;;;;;;6.55;53.14;101574.00;5072073;28;20115;-83
2023/04/06 02:47:41;;;;;;;22.58;11.60;;;;;;;6.40;53.70;101568.16;5056145;28;20043;-83
2023/04/06 02:50:08;;;;;;;21.20;10.98;;;;;;;6.47;53.67;101563.22;5055244;28;20039;-83
2023/04/06 02:52:36;;;;;;;19.33;12.00;;;;;;;6.44;53.95;101568.34;5072830;28;20087;-83
2023/04/06 02:55:02;;;;;;;23.58;12.55;;;;;;;6.14;54.21;101530.41;5071128;28;20094;-83
2023/04/06 02:57:28;;;;;;;19.60;10.95;;;;;;;6.33;54.26;101563.50;5072980;28;20029;-83
2023/04/06 02:59:53;;;;;;;18.95;11.52;;;;;;;6.41;53.79;101565.59;5071172;28;20038;-83
2023/04/06 03:02:21;;;;;;;19.50;12.30;;;;;;;6.25;53.85;101514.25;5072013;28;20094;-83
2023/04/06 03:04:47;;;;;;;22.60;11.88;;;;;;;6.54;53.44;101556.47;5055331;28;20048;-83
2023/04/06 03:10:07;;;;;;;17.58;10.63;;;;;;;6.56;53.86;101523.28;5072565;28;20063;-83
2023/04/06 03:12:34;;;;;;;21.45;11.60;;;;;;;6.57;53.27;101503.19;5071801;28;20036;-83
2023/04/06 03:15:07;;;;;;;18.02;11.32;;;;;;;6.67;55.02;101521.06;5054852;28;20360;-83
2023/04/06 03:17:36;;;;;;;20.50;12.07;;;;;;;6.77;54.12;101539.84;5055904;28;20025;-83
2023/04/06 03:20:04;;;;;;;19.20;11.88;;;;;;;6.75;53.74;101548.50;5072975;28;20036;-83
2023/04/06 03:22:35;;;;;;;21.17;12.35;;;;;;;6.41;53.77;101517.44;5070136;28;20404;-84
2023/04/06 03:25:02;;;;;;;19.67;11.60;;;;;;;6.41;54.96;101512.19;5055894;28;20056;-84
2023/04/06 03:27:34;;;;;;;24.80;12.85;;;;;;;6.36;54.39;101508.50;5072943;28;20037;-84
2023/04/06 03:30:00;;;;;;;19.25;11.98;;;;;;;6.41;54.74;101520.97;5072650;28;20063;-84
2023/04/06 03:32:27;;;;;;;21.30;11.98;;;;;;;6.32;54.34;101478.63;5071271;28;20025;-84
2023/04/06 03:34:53;;;;;;;18.77;11.75;;;;;;;6.81;53.86;101526.81;5071382;28;20119;-84
2023/04/06 03:37:20;;;;;;;21.48;12.10;;;;;;;6.89;54.25;101526.25;5070998;28;20083;-84
2023/04/06 03:39:45;;;;;;;21.70;12.52;;;;;;;6.88;54.01;101537.59;5072545;28;20029;-84
2023/04/06 03:42:11;;;;;;;23.85;13.05;;;;;;;6.92;53.25;101541.25;5071619;28;20391;-84
2023/04/06 03:44:38;;;;;;;22.05;11.63;;;;;;;6.61;54.29;101502.47;5072413;28;20033;-84
2023/04/06 03:47:03;;;;;;;23.00;12.65;;;;;;;6.84;54.52;101532.19;5038338;28;20040;-84
2023/04/06 03:49:31;;;;;;;22.58;13.35;;;;;;;6.55;54.41;101489.06;5054115;28;20125;-83
2023/04/06 03:51:57;;;;;;;22.83;13.32;;;;;;;6.51;55.69;101506.47;5071548;28;20025;-84
2023/04/06 03:54:22;;;;;;;19.73;12.57;;;;;;;6.32;55.07;101504.84;5070913;28;20052;-83
2023/04/06 03:56:48;;;;;;;21.50;12.13;;;;;;;6.31;55.73;101499.56;5071216;28;20036;-84
2023/04/06 03:59:21;;;;;;;22.13;12.93;;;;;;;6.49;54.50;101523.88;5054364;28;20041;-85
2023/04/06 04:01:48;;;;;;;20.80;12.30;;;;;;;6.40;54.98;101498.19;5072962;28;20037;-84
2023/04/06 04:04:15;;;;;;;20.98;12.48;;;;;;;6.57;54.53;101530.31;5069537;28;20431;-84
2023/04/06 04:06:40;;;;;;;21.13;12.57;;;;;;;6.40;55.67;101487.69;5071171;28;20067;-83
2023/04/06 04:09:06;;;;;;;21.70;13.20;;;;;;;6.53;55.02;101518.81;5071811;28;20032;-83
2023/04/06 04:11:31;;;;;;;20.35;12.63;;;;;;;6.27;56.23;101482.81;5071648;28;20123;-83
2023/04/06 04:13:59;;;;;;;26.65;13.13;;;;;;;6.48;54.97;101530.88;5091649;28;20024;-83
2023/04/06 04:16:25;;;;;;;20.63;13.00;;;;;;;6.38;55.72;101533.06;5074639;28;20082;-83
2023/04/06 04:18:58;;;;;;;22.30;13.18;;;;;;;5.89;55.57;101463.81;5058051;28;20028;-84
2023/04/06 04:21:25;;;;;;;23.48;13.52;;;;;;;6.17;56.18;101535.78;5075641;28;20124;-84
2023/04/06 04:23:57;;;;;;;23.88;12.98;;;;;;;6.03;56.20;101519.47;5057892;28;20029;-84
2023/04/06 04:26:22;;;;;;;24.00;13.70;;;;;;;6.21;56.43;101535.03;5074427;28;20036;-83
2023/04/06 04:28:48;;;;;;;22.20;13.63;;;;;;;6.34;56.15;101532.09;5057425;28;20033;-83
2023/04/06 04:31:14;;;;;;;25.60;12.43;;;;;;;6.22;56.25;101486.97;5040576;28;20035;-83
2023/04/06 04:33:40;;;;;;;21.85;13.63;;;;;;;6.25;55.98;101498.50;5041233;28;20037;-84
2023/04/06 04:36:06;;;;;;;24.42;13.20;;;;;;;6.23;55.72;101484.41;5040996;28;20033;-84
2023/04/06 04:38:33;;;;;;;21.05;12.73;;;;;;;6.24;55.75;101477.44;5075402;28;20036;-83
2023/04/06 04:40:59;;;;;;;23.05;13.27;;;;;;;6.30;55.64;101495.16;5073866;28;20024;-83
2023/04/06 04:43:25;;;;;;;23.42;13.82;;;;;;;6.43;55.37;101489.53;5074012;28;20097;-83
2023/04/06 04:45:50;;;;;;;20.75;13.10;;;;;;;6.66;54.83;101525.41;5073157;28;20473;-84
2023/04/06 04:48:16;;;;;;;22.40;13.48;;;;;;;6.63;55.84;101509.53;5073927;28;20534;-84
2023/04/06 04:50:41;;;;;;;23.17;13.32;;;;;;;6.50;54.72;101487.19;5040680;28;20085;-84
2023/04/06 04:53:07;;;;;;;24.05;13.88;;;;;;;6.53;54.83;101510.03;5057191;28;20032;-84
2023/04/06 04:55:32;;;;;;;20.95;12.40;;;;;;;6.59;55.82;101514.63;5073154;28;20032;-84
2023/04/06 04:57:59;;;;;;;20.23;12.25;;;;;;;6.32;55.20;101467.22;5056443;28;20048;-84
2023/04/06 05:00:25;;;;;;;25.08;13.52;;;;;;;6.60;55.15;101521.69;5072940;28;20035;-84
2023/04/06 05:02:52;;;;;;;23.50;13.00;;;;;;;6.52;56.37;101518.75;5072800;28;20032;-84
2023/04/06 05:05:17;;;;;;;25.08;13.18;;;;;;;6.44;56.24;101512.31;5056033;28;20485;-84
2023/04/06 05:07:43;;;;;;;22.10;13.35;;;;;;;6.43;56.38;101518.41;5073070;28;20080;-84
2023/04/06 05:10:09;;;;;;;21.63;13.18;;;;;;;6.45;56.01;101522.88;5056155;28;20025;-84
2023/04/06 05:12:35;;;;;;;21.52;12.30;;;;;;;6.17;57.04;101473.69;5072995;28;20103;-84
2023/04/06 05:15:03;;;;;;;24.95;13.43;;;;;;;6.42;56.59;101521.84;5055931;28;20137;-84
2023/04/06 05:17:28;;;;;;;21.23;12.98;;;;;;;6.34;56.70;101515.41;5072684;28;20527;-84
2023/04/06 05:19:54;;;;;;;21.33;12.68;;;;;;;6.40;56.82;101515.66;5056267;28;20033;-84
2023/04/06 05:22:21;;;;;;;21.20;13.68;;;;;;;6.39;56.47;101522.66;5072142;28;20404;-85
2023/04/06 05:24:46;;;;;;;22.80;13.23;;;;;;;6.34;57.34;101518.03;5072499;28;20106;-84
2023/04/06 05:27:13;;;;;;;23.05;13.73;;;;;;;5.97;57.75;101479.88;5073574;28;20036;-84
2023/04/06 05:29:40;;;;;;;23.73;13.90;;;;;;;5.91;57.99;101519.84;5072134;28;20472;-83
2023/04/06 05:32:06;;;;;;;23.05;13.60;;;;;;;5.67;58.36;101492.63;5072791;28;20037;-83
2023/04/06 05:34:38;;;;;;;25.45;14.18;;;;;;;5.78;58.97;101523.69;5072793;28;20384;-84
2023/04/06 05:37:03;;;;;;;23.63;13.00;;;;;;;5.71;59.80;101499.78;5074247;28;20032;-84
2023/04/06 05:39:30;;;;;;;23.63;13.48;;;;;;;5.90;59.33;101514.53;5073093;28;20127;-84
2023/04/06 05:41:56;;;;;;;23.85;12.98;;;;;;;5.98;58.64;101508.78;5072610;28;20036;-83
2023/04/06 05:44:21;;;;;;;24.27;13.40;;;;;;;6.02;58.58;101491.44;5055584;28;20330;-84
2023/04/06 05:46:47;;;;;;;21.63;12.98;;;;;;;6.09;58.47;101493.47;5055850;28;20070;-84
2023/04/06 05:49:12;;;;;;;21.70;13.07;;;;;;;6.12;59.35;101518.94;5038679;28;20059;-84
2023/04/06 05:51:38;;;;;;;21.27;13.20;;;;;;;6.06;58.70;101505.59;5055816;28;20503;-83
2023/04/06 05:54:03;;;;;;;25.35;13.30;;;;;;;6.16;58.37;101508.59;5039097;28;20127;-84
2023/04/06 05:56:30;;;;;;;22.58;13.25;;;;;;;6.05;57.72;101477.56;5072352;28;20487;-84
2023/04/06 05:58:56;;;;;;;22.77;13.15;;;;;;;6.28;58.62;101514.34;5056064;28;20118;-84
2023/04/06 06:01:22;;;;;;;22.75;13.20;;;;;;;6.28;57.82;101516.97;5072595;28;20495;-83
2023/04/06 06:03:47;;;;;;;23.33;13.23;;;;;;;6.31;58.52;101510.06;5055301;28;20037;-84
2023/04/06 06:06:13;;;;;;;22.92;12.63;;;;;;;6.14;59.13;101497.19;5054292;28;20068;-84
2023/04/06 06:08:41;;;;;;;23.52;13.63;;;;;;;6.14;59.46;101510.28;5055186;28;20028;-83
2023/04/06 06:11:06;;;;;;;24.02;12.95;;;;;;;6.10;58.89;101497.00;5071751;28;20115;-83
2023/04/06 06:13:33;;;;;;;23.95;13.52;;;;;;;5.96;59.10;101471.13;5055078;28;20068;-83
2023/04/06 06:15:58;;;;;;;23.02;14.18;;;;;;;5.88;59.13;101476.88;5072891;28;20412;-83
2023/04/06 06:18:24;;;;;;;21.20;12.70;;;;;;;6.05;59.00;101509.94;5054792;28;20033;-83
2023/04/06 06:20:50;;;;;;;23.25;12.43;;;;;;;6.00;59.70;101515.00;5071581;28;20123;-83
2023/04/06 06:23:15;;;;;;;24.90;13.77;;;;;;;5.81;60.50;101490.56;5054668;28;20052;-86
2023/04/06 06:25:43;;;;;;;21.50;13.43;;;;;;;5.76;60.43;101480.78;5038556;28;20024;-83
2023/04/06 06:28:09;;;;;;;24.50;12.80;;;;;;;5.90;59.65;101498.78;5054944;28;20502;-85
2023/04/06 06:30:35;;;;;;;23.17;13.63;;;;;;;5.92;59.56;101503.31;5070864;28;20040;-85
2023/04/06 06:33:00;;;;;;;26.60;13.68;;;;;;;6.05;59.16;101519.53;5037797;28;20036;-83
2023/04/06 06:35:27;;;;;;;26.58;13.50;;;;;;;5.99;60.61;101505.31;5072755;28;20057;-84
2023/04/06 06:37:53;;;;;;;21.88;12.63;;;;;;;6.02;59.70;101510.69;5073039;28;20029;-83
2023/04/06 06:40:19;;;;;;;22.98;12.43;;;;;;;5.68;59.02;101437.63;5071280;28;20081;-83
2023/04/06 06:42:45;;;;;;;21.45;12.65;;;;;;;6.05;60.01;101509.06;5071333;28;20493;-83
2023/04/06 06:45:11;;;;;;;23.33;14.00;;;;;;;6.10;60.73;101521.50;5071438;28;20119;-82
2023/04/06 06:47:37;;;;;;;24.98;12.88;;;;;;;6.03;60.52;101504.59;5071541;28;20063;-81
2023/04/06 06:50:03;;;;;;;23.08;12.82;;;;;;;6.22;59.95;101521.09;5071084;28;20409;-83
2023/04/06 06:52:28;;;;;;;22.33;12.77;;;;;;;6.01;59.73;101477.44;5054879;28;20029;-85
2023/04/06 06:54:56;;;;;;;23.95;13.60;;;;;;;6.25;59.46;101521.19;5054282;28;20032;-85
2023/04/06 06:57:21;;;;;;;24.42;13.13;;;;;;;6.12;60.73;101488.34;5054776;28;20396;-85
2023/04/06 06:59:47;;;;;;;21.60;12.70;;;;;;;6.31;60.28;101504.81;5071231;28;20464;-85
2023/04/06 07:02:12;;;;;;;21.67;13.23;;;;;;;6.16;60.29;101465.75;5037915;28;20082;-86
2023/04/06 07:04:38;;;;;;;22.13;13.20;;;;;;;6.40;59.99;101513.03;5054626;28;20485;-85
2023/04/06 07:07:03;;;;;;;20.85;12.50;;;;;;;6.36;60.29;101496.28;5070830;28;20053;-85
2023/04/06 07:09:34;;;;;;;21.52;12.30;;;;;;;6.36;60.35;101498.91;5071141;28;20040;-85
2023/04/06 07:12:00;;;;;;;24.13;13.02;;;;;;;6.48;59.20;101503.72;5054967;28;20113;-84
2023/04/06 07:14:27;;;;;;;24.08;12.82;;;;;;;6.48;60.99;101508.97;5072651;28;20090;-85
2023/04/06 07:16:53;;;;;;;24.10;13.88;;;;;;;6.38;60.69;101491.06;5054153;28;20090;-84
2023/04/06 07:19:18;;;;;;;21.27;12.30;;;;;;;6.52;60.92;101505.63;5071110;28;20417;-85
2023/04/06 07:21:44;;;;;;;19.90;12.82;;;;;;;6.31;60.64;101454.94;5072514;28;20024;-85
2023/04/06 07:24:12;;;;;;;21.58;12.68;;;;;;;6.70;61.25;101500.16;5071182;28;20507;-85
2023/04/06 07:26:37;;;;;;;23.90;12.93;;;;;;;6.54;60.79;101469.81;5071066;28;20025;-86
2023/04/06 07:29:02;;;;;;;22.02;13.15;;;;;;;6.68;60.66;101497.50;5071413;28;20101;-86
2023/04/06 07:31:29;;;;;;;22.13;12.63;;;;;;;6.65;60.12;101500.00;5037595;28;20522;-85
2023/04/06 07:33:54;;;;;;;28.42;13.77;;;;;;;6.61;59.99;101495.47;5054439;28;20104;-86
2023/04/06 07:36:22;;;;;;;20.67;12.57;;;;;;;6.25;60.23;101421.47;5070931;28;20483;-86
2023/04/06 07:38:48;;;;;;;20.80;12.63;;;;;;;6.20;61.07;101402.03;5070300;28;20040;-86
2023/04/06 07:41:14;;;;;;;21.13;13.10;;;;;;;6.65;61.18;101470.22;5053829;28;20040;-86
2023/04/06 07:43:40;;;;;;;18.45;12.18;;;;;;;6.90;60.89;101493.91;5054650;28;20542;-84
2023/04/06 07:46:05;;;;;;;22.20;12.65;;;;;;;7.01;59.80;101496.91;5054565;28;20074;-85
2023/04/06 07:48:31;;;;;;;21.55;12.82;;;;;;;6.90;59.85;101472.91;5041321;28;20036;-84
2023/04/06 07:51:02;;;;;;;19.55;12.70;;;;;;;6.86;60.25;101444.72;5075446;28;20473;-87
2023/04/06 07:53:27;;;;;;;21.52;12.98;;;;;;;7.04;60.80;101465.50;5076081;28;20027;-87
2023/04/06 07:55:57;;;;;;;22.92;12.35;;;;;;;7.21;58.84;101492.38;5058075;28;20024;-87
2023/04/06 07:58:22;;;;;;;22.08;12.55;;;;;;;7.09;58.15;101465.66;5075909;28;20108;-87
2023/04/06 08:00:48;;;;;;;26.92;13.02;;;;;;;7.34;59.14;101491.06;5074473;28;20119;-87
2023/04/06 08:03:13;;;;;;;21.05;12.13;;;;;;;7.41;58.97;101491.31;5074597;28;20131;-87
2023/04/06 08:05:39;;;;;;;21.27;12.25;;;;;;;7.20;58.85;101444.16;5073811;28;20059;-87
2023/04/06 08:08:05;;;;;;;21.55;11.40;;;;;;;7.49;56.84;101486.28;5074200;28;20032;-87
2023/04/06 08:10:30;;;;;;;25.45;12.55;;;;;;;7.51;56.19;101488.13;5075092;28;20404;-86
2023/04/06 08:12:56;;;;;;;22.63;12.02;;;;;;;7.30;56.07;101455.88;5057373;28;20029;-87
2023/04/06 08:15:21;;;;;;;21.00;11.70;;;;;;;7.55;56.05;101497.03;5074028;28;20024;-86
2023/04/06 08:17:46;;;;;;;24.58;12.15;;;;;;;7.41;55.67;101472.91;5075604;28;20033;-86
2023/04/06 08:20:12;;;;;;;21.08;11.90;;;;;;;7.61;56.05;101501.59;5073965;28;20116;-87
2023/04/06 08:22:37;;;;;;;21.45;12.63;;;;;;;7.43;56.57;101462.44;5074442;28;20460;-87
2023/04/06 08:25:03;;;;;;;25.08;13.40;;;;;;;7.54;56.37;101466.31;5074104;28;20036;-87
2023/04/06 08:27:29;;;;;;;21.77;12.52;;;;;;;7.52;56.98;101446.97;5073713;28;20482;-86
2023/04/06 08:29:54;;;;;;;22.60;12.88;;;;;;;7.90;56.81;101497.28;5073673;28;20090;-87
2023/04/06 08:32:20;;;;;;;24.05;12.70;;;;;;;7.86;56.09;101482.25;5075285;28;20047;-86
2023/04/06 08:34:49;;;;;;;25.08;12.80;;;;;;;7.90;56.33;101497.28;5073461;28;20029;-86
2023/04/06 08:37:14;;;;;;;27.38;12.38;;;;;;;7.75;55.92;101474.91;5074165;28;20035;-89
2023/04/06 08:39:40;;;;;;;29.10;12.70;;;;;;;7.93;56.08;101495.66;5075066;28;20032;-89
2023/04/06 08:42:16;;;;;;;25.30;12.68;;;;;;;7.71;55.85;101456.34;5073600;28;20040;-89
2023/04/06 08:44:42;;;;;;;20.65;12.52;;;;;;;7.72;57.04;101447.63;5075040;28;20040;-89
2023/04/06 08:47:07;;;;;;;24.25;12.95;;;;;;;8.15;57.15;101505.13;5095871;28;20029;-89
2023/04/06 08:49:39;;;;;;;21.65;12.55;;;;;;;8.15;57.36;101489.31;5073680;28;20028;-89
2023/04/06 08:52:10;;;;;;;23.88;12.95;;;;;;;7.89;56.79;101433.25;5073306;28;20033;-88
2023/04/06 08:54:41;;;;;;;22.02;12.77;;;;;;;8.41;56.23;101500.69;5090462;28;20486;-88
2023/04/06 08:57:20;;;;;;;26.08;12.50;;;;;;;8.31;57.17;101479.22;5056300;28;20423;-89
2023/04/06 08:59:48;;;;;;;20.85;12.23;;;;;;;8.11;56.23;101421.63;5074050;28;20043;-90
2023/04/06 09:02:17;;;;;;;23.88;12.85;;;;;;;8.38;56.44;101458.44;5073085;28;20040;-89
2023/04/06 09:04:47;;;;;;;24.83;13.18;;;;;;;8.26;57.21;101423.81;5090244;28;20473;-88
2023/04/06 09:07:18;;;;;;;22.75;12.82;;;;;;;8.62;57.32;101470.56;5072899;28;20060;-88
2023/04/06 09:09:47;;;;;;;23.02;12.32;;;;;;;8.51;57.45;101436.88;5073021;28;20028;-88
2023/04/06 09:12:24;;;;;;;25.98;12.95;;;;;;;8.88;56.82;101487.97;5078777;28;20020;-90
2023/04/06 09:14:52;;;;;;;23.35;12.50;;;;;;;8.65;57.00;101433.72;5074512;28;20028;-89
2023/04/06 09:17:28;;;;;;;25.20;13.45;;;;;;;8.77;58.19;101445.50;5073160;28;20048;-88
2023/04/06 09:19:54;;;;;;;22.58;13.52;;;;;;;9.06;58.04;101482.31;5074661;28;20029;-87
2023/04/06 09:22:20;;;;;;;23.85;13.27;;;;;;;9.09;58.34;101478.88;5056717;28;20036;-88
2023/04/06 09:24:48;;;;;;;26.77;13.02;;;;;;;9.14;58.94;101480.78;5056858;28;20120;-87
2023/04/06 09:27:14;;;;;;;21.60;12.57;;;;;;;8.89;58.92;101423.00;5090016;28;20458;-88
2023/04/06 09:29:44;;;;;;;22.13;12.38;;;;;;;9.31;58.80;101472.44;5074873;28;20497;-87
2023/04/06 09:32:11;;;;;;;20.40;11.80;;;;;;;9.14;60.08;101428.06;5076396;28;20214;-87
2023/04/06 09:34:38;;;;;;;21.50;12.07;;;;;;;9.43;59.99;101473.63;5072890;28;20032;-87
2023/04/06 09:37:24;;;;;;;21.10;12.55;;;;;;;9.34;59.38;101451.41;5089710;28;20398;-89
2023/04/06 09:39:54;;;;;;;20.85;12.68;;;;;;;9.53;60.63;101503.78;5089625;28;20029;-87
2023/04/06 09:42:26;;;;;;;18.35;12.00;;;;;;;9.31;61.85;101475.06;5056165;28;20052;-90
2023/04/06 09:44:54;;;;;;;22.77;13.20;;;;;;;9.13;62.90;101465.81;5088853;28;20161;-83
2023/04/06 09:47:27;;;;;;;21.45;12.68;;;;;;;9.41;63.60;101511.38;5050999;28;20040;-85
2023/04/06 09:50:02;;;;;;;;;;;;;;;9.48;64.04;101508.94;5072617;28;20028;-86
2023/04/06 09:52:34;;;;;;;19.02;11.82;;;;;;;9.21;64.58;101485.38;5072138;28;20386;-86
2023/04/06 09:55:03;;;;;;;20.88;10.35;;;;;;;9.22;65.61;101481.88;5073584;28;20078;-84
2023/04/06 09:57:37;;;;;;;17.85;10.35;;;;;;;9.42;63.82;101516.69;5055481;28;20060;-84
2023/04/06 10:00:11;;;;;;;18.92;10.57;;;;;;;9.17;65.20;101472.97;5056223;28;20040;-85
2023/04/06 10:03:06;;;;;;;23.33;11.07;;;;;;;9.33;63.25;101495.34;5072257;28;20044;-86
2023/04/06 10:06:00;;;;;;;15.65;10.10;;;;;;;9.11;64.52;101467.50;5071881;28;20035;-84
2023/04/06 10:08:30;;;;;;;18.13;10.18;;;;;;;9.24;66.51;101496.00;5073353;28;20035;-84
2023/04/06 10:10:57;;;;;;;15.88;10.23;;;;;;;9.31;66.83;101512.88;5071505;28;20461;-85
2023/04/06 10:13:24;;;;;;;16.17;9.48;;;;;;;9.31;67.52;101515.50;5055769;28;20471;-85
2023/04/06 10:15:51;;;;;;;18.45;10.32;;;;;;;9.27;67.21;101521.56;5071623;28;20400;-85
2023/04/06 10:18:19;;;;;;;21.58;11.20;;;;;;;9.19;68.84;101521.34;5071230;28;20052;-85
2023/04/06 10:20:50;;;;;;;17.60;10.70;;;;;;;8.82;68.26;101450.00;5071512;28;20032;-86
2023/04/06 10:23:24;;;;;;;18.10;11.07;;;;;;;9.21;69.86;101526.69;5071527;28;20149;-86
2023/04/06 10:25:54;;;;;;;17.25;9.25;;;;;;;8.88;70.22;101473.91;5071619;28;20476;-88
2023/04/06 10:28:20;;;;;;;15.50;8.95;;;;;;;9.03;71.07;101519.13;5073285;28;20043;-85
2023/04/06 10:31:14;;;;;;;15.95;7.97;;;;;;;8.95;69.29;101513.66;5071202;28;20037;-88
2023/04/06 10:33:43;;;;;;;13.30;8.48;;;;;;;8.85;71.74;101508.09;5050498;28;20036;-86
2023/04/06 10:36:14;;;;;;;16.92;8.57;;;;;;;8.83;72.36;101521.22;5071348;28;20029;-86
2023/04/06 10:38:45;;;;;;;15.48;8.32;;;;;;;8.79;73.79;101529.91;5073260;28;20040;-86
2023/04/06 10:41:15;;;;;;;12.48;8.10;;;;;;;8.26;73.14;101430.00;5078064;28;20120;-87
2023/04/06 10:43:43;;;;;;;12.23;7.65;;;;;;;8.40;74.18;101462.03;5078681;28;20032;-88
2023/04/06 10:46:10;;;;;;;11.90;7.85;;;;;;;8.77;75.48;101518.41;5074353;28;20119;-88
2023/04/06 10:48:42;;;;;;;14.65;8.30;;;;;;;8.52;74.64;101478.19;5055406;28;20385;-87
2023/04/06 10:51:15;;;;;;;12.70;8.25;;;;;;;8.59;72.94;101475.72;5073382;28;20060;-87
2023/04/06 10:53:48;;;;;;;15.77;8.23;;;;;;;8.58;73.48;101468.69;5074337;28;20117;-89
2023/04/06 10:56:26;;;;;;;14.63;8.32;;;;;;;8.49;73.63;101469.31;5072297;28;20028;-88
2023/04/06 10:58:55;;;;;;;12.45;7.22;;;;;;;8.18;75.31;101427.97;5074858;28;20165;-88
2023/04/06 11:01:22;;;;;;;12.55;7.47;;;;;;;8.11;75.45;101423.38;5071445;28;20032;-88
2023/04/06 11:03:52;;;;;;;15.98;7.07;;;;;;;8.30;77.06;101465.19;5072448;28;20111;-89
2023/04/06 11:06:25;;;;;;;10.60;6.85;;;;;;;8.45;76.42;101483.22;5073033;28;20079;-87
2023/04/06 11:08:57;;;;;;;10.82;6.53;;;;;;;8.03;76.99;101431.91;5071666;28;20433;-88
2023/04/06 11:11:28;;;;;;;11.68;7.05;;;;;;;8.20;77.58;101450.84;5070066;28;20426;-85
2023/04/06 11:13:59;;;;;;;11.80;6.85;;;;;;;8.31;77.66;101464.34;5050975;28;20044;-86
2023/04/06 11:16:29;;;;;;;9.90;6.53;;;;;;;8.48;77.83;101526.34;5066169;28;20400;-85
2023/04/06 11:19:06;;;;;;;10.43;6.07;;;;;;;8.18;78.33;101457.84;5051242;28;20037;-84
2023/04/06 11:21:43;;;;;;;11.88;6.68;;;;;;;8.23;76.88;101472.03;5054506;28;20025;-84
2023/04/06 11:24:24;;;;;;;9.13;5.78;;;;;;;8.28;79.71;101490.59;5055151;28;20044;-85